Time;durP1;ratioP1;P1;durP2;ratioP2;P2;SDS_P1;SDS_P2;PMS_P1;PMS_P2;Temp;Humidity;BMP_temperature;BMP_pressure;BME280_temperature;BME280_humidity;BME280_pressure;Samples;Min_cycle;Max_cycle;Signal;HPM_P1;HPM_P2
2021/08/20 00:00:01;;;;;;;9.18;4.05;;;18.90;99.90;;;;;;4995543;28;20027;-67
2021/08/20 00:02:29;;;;;;;6.75;3.40;;;18.90;99.90;;;;;;4996558;28;20030;-67
2021/08/20 00:04:55;;;;;;;6.65;3.80;;;18.90;99.90;;;;;;4962485;28;20100;-67
2021/08/20 00:07:21;;;;;;;6.95;3.35;;;18.90;99.90;;;;;;4996010;28;20089;-67
2021/08/20 00:09:50;;;;;;;5.13;3.35;;;18.80;99.90;;;;;;4996641;28;20360;-67
2021/08/20 00:12:16;;;;;;;17.52;3.70;;;18.70;99.90;;;;;;4996399;28;20041;-67
2021/08/20 00:14:42;;;;;;;4.80;3.28;;;18.80;99.90;;;;;;4996231;28;20034;-67
2021/08/20 00:17:07;;;;;;;5.95;3.00;;;18.80;99.90;;;;;;5005426;28;20050;-67
2021/08/20 00:19:34;;;;;;;6.25;2.90;;;18.70;99.90;;;;;;4978506;28;20040;-67
2021/08/20 00:22:00;;;;;;;6.93;3.38;;;18.70;99.90;;;;;;4996248;28;20034;-67
2021/08/20 00:24:26;;;;;;;5.68;3.00;;;18.80;99.90;;;;;;4996200;28;20117;-67
2021/08/20 00:26:51;;;;;;;5.57;3.20;;;18.90;99.90;;;;;;4994821;28;20497;-67
2021/08/20 00:29:17;;;;;;;9.07;2.88;;;18.80;99.90;;;;;;4996046;28;20030;-67
2021/08/20 00:31:43;;;;;;;5.68;2.72;;;18.80;99.90;;;;;;4994647;28;20463;-67
2021/08/20 00:34:09;;;;;;;5.60;2.97;;;18.80;99.90;;;;;;4996027;28;20379;-67
2021/08/20 00:36:34;;;;;;;5.65;2.72;;;18.70;99.90;;;;;;4994716;28;20038;-67
2021/08/20 00:39:00;;;;;;;4.68;2.85;;;18.70;99.90;;;;;;4994567;28;20077;-67
2021/08/20 00:41:26;;;;;;;6.38;3.30;;;18.60;99.90;;;;;;5010799;28;20486;-67
2021/08/20 00:43:52;;;;;;;4.88;2.72;;;18.60;99.90;;;;;;4978483;28;20027;-68
2021/08/20 00:46:17;;;;;;;5.88;2.75;;;18.60;99.90;;;;;;4995534;28;20034;-68
2021/08/20 00:48:43;;;;;;;5.68;3.20;;;18.60;99.90;;;;;;4995482;28;20121;-68
2021/08/20 00:51:18;;;;;;;6.97;2.95;;;18.60;99.90;;;;;;4995740;28;20064;-68
2021/08/20 00:53:45;;;;;;;5.75;2.50;;;18.60;99.90;;;;;;4995290;28;20033;-68
2021/08/20 00:56:12;;;;;;;5.32;2.95;;;18.60;99.90;;;;;;4995359;28;20054;-68
2021/08/20 00:58:39;;;;;;;9.50;3.00;;;18.50;99.90;;;;;;4994103;28;20046;-68
2021/08/20 01:01:05;;;;;;;3.97;2.60;;;18.60;99.90;;;;;;4995421;28;20057;-68
2021/08/20 01:03:32;;;;;;;7.97;2.67;;;18.50;99.90;;;;;;4993960;28;20031;-68
2021/08/20 01:06:00;;;;;;;5.18;2.70;;;18.50;99.90;;;;;;4995549;28;20045;-68
2021/08/20 01:08:29;;;;;;;4.78;2.70;;;18.50;99.90;;;;;;4994986;28;20100;-68
2021/08/20 01:11:03;;;;;;;6.82;2.92;;;18.50;99.90;;;;;;4994287;28;20034;-68
2021/08/20 01:13:39;;;;;;;5.65;2.90;;;18.40;99.90;;;;;;4993858;28;20483;-68
2021/08/20 01:16:07;;;;;;;7.03;2.90;;;18.40;99.90;;;;;;4978259;28;20038;-67
2021/08/20 01:18:36;;;;;;;3.80;2.67;;;18.40;99.90;;;;;;4993512;28;20042;-68
2021/08/20 01:21:15;;;;;;;9.77;2.90;;;18.40;99.90;;;;;;4993865;28;20034;-68
2021/08/20 01:23:44;;;;;;;5.30;2.78;;;18.40;99.90;;;;;;4993610;28;20035;-68
2021/08/20 01:26:10;;;;;;;4.85;2.70;;;18.40;99.90;;;;;;5010225;28;20049;-68
2021/08/20 01:28:35;;;;;;;12.00;3.83;;;18.40;99.90;;;;;;4993690;28;20034;-68
2021/08/20 01:31:05;;;;;;;4.90;2.88;;;18.40;99.90;;;;;;4993938;28;20136;-68
2021/08/20 01:33:31;;;;;;;4.80;2.63;;;18.50;99.90;;;;;;4994736;28;20065;-68
2021/08/20 01:35:58;;;;;;;6.00;2.88;;;18.40;99.90;;;;;;4994583;28;20077;-67
2021/08/20 01:38:25;;;;;;;7.00;4.07;;;18.40;99.90;;;;;;4994794;28;20038;-68
2021/08/20 01:40:53;;;;;;;6.97;2.72;;;18.40;99.90;;;;;;4994807;28;20077;-68
2021/08/20 01:43:21;;;;;;;6.63;2.88;;;18.40;99.90;;;;;;4993624;28;20038;-68
2021/08/20 01:45:47;;;;;;;4.68;2.33;;;18.40;99.90;;;;;;4993548;28;20041;-67
2021/08/20 01:48:14;;;;;;;5.03;3.03;;;18.40;99.90;;;;;;4993258;28;20368;-68
2021/08/20 01:50:41;;;;;;;4.75;3.17;;;18.40;99.90;;;;;;4994232;28;20507;-68
2021/08/20 01:53:09;;;;;;;6.63;3.10;;;18.40;99.90;;;;;;4993399;28;20046;-68
2021/08/20 01:55:34;;;;;;;5.45;2.95;;;18.30;99.90;;;;;;4993365;28;20026;-68
2021/08/20 01:58:04;;;;;;;8.38;3.67;;;18.30;99.90;;;;;;4994538;28;20104;-67
2021/08/20 02:00:31;;;;;;;4.93;3.17;;;18.30;99.90;;;;;;4994137;28;20049;-68
2021/08/20 02:02:56;;;;;;;5.70;2.92;;;18.30;99.90;;;;;;4992930;28;20499;-68
2021/08/20 02:05:22;;;;;;;4.72;3.25;;;18.30;99.90;;;;;;4993959;28;20066;-67
2021/08/20 02:07:48;;;;;;;5.63;2.90;;;18.30;99.90;;;;;;4994154;28;20479;-68
2021/08/20 02:10:14;;;;;;;5.18;3.28;;;18.30;99.90;;;;;;4992912;28;20035;-68
2021/08/20 02:12:40;;;;;;;6.78;3.15;;;18.30;99.90;;;;;;4994072;28;20034;-68
2021/08/20 02:15:07;;;;;;;7.05;3.30;;;18.30;99.90;;;;;;4994119;28;20041;-67
2021/08/20 02:17:33;;;;;;;6.72;3.17;;;18.20;99.90;;;;;;4992325;28;20525;-68
2021/08/20 02:19:59;;;;;;;6.65;3.90;;;18.20;99.90;;;;;;4992550;28;20038;-68
2021/08/20 02:22:24;;;;;;;6.28;3.47;;;18.20;99.90;;;;;;4992343;28;20106;-68
2021/08/20 02:24:54;;;;;;;5.43;3.10;;;18.20;99.90;;;;;;4993775;28;20038;-68
2021/08/20 02:27:22;;;;;;;6.50;3.10;;;18.20;99.90;;;;;;4992508;28;20454;-68
2021/08/20 02:29:47;;;;;;;8.55;3.20;;;18.30;99.90;;;;;;4993463;28;20026;-68
2021/08/20 02:32:13;;;;;;;6.68;3.25;;;18.40;99.90;;;;;;4993917;28;20434;-68
2021/08/20 02:34:39;;;;;;;4.43;3.10;;;18.40;99.90;;;;;;4993326;28;20498;-67
2021/08/20 02:37:05;;;;;;;5.97;3.53;;;18.40;99.90;;;;;;4992363;28;20406;-68
2021/08/20 02:39:32;;;;;;;5.63;3.13;;;18.40;99.90;;;;;;4993361;28;20030;-68
2021/08/20 02:41:58;;;;;;;6.85;3.05;;;18.40;99.90;;;;;;4992549;28;20042;-68
2021/08/20 02:44:23;;;;;;;6.03;3.22;;;18.50;99.90;;;;;;4993549;28;20027;-68
2021/08/20 02:46:49;;;;;;;6.07;3.03;;;18.50;99.90;;;;;;4993407;28;20034;-68
2021/08/20 02:49:15;;;;;;;5.32;2.95;;;18.50;99.90;;;;;;4992431;28;20057;-68
2021/08/20 02:51:40;;;;;;;5.65;3.60;;;18.50;99.90;;;;;;4992146;28;20129;-68
2021/08/20 02:54:06;;;;;;;7.38;3.65;;;18.40;99.90;;;;;;4993527;28;20069;-68
2021/08/20 02:56:32;;;;;;;9.02;3.67;;;18.40;99.90;;;;;;4993129;28;20061;-68
2021/08/20 02:58:58;;;;;;;6.07;3.55;;;18.40;99.90;;;;;;4993167;28;20100;-68
2021/08/20 03:01:23;;;;;;;6.65;3.53;;;18.40;99.90;;;;;;4993501;28;20030;-68
2021/08/20 03:03:49;;;;;;;7.45;3.88;;;18.40;99.90;;;;;;4992811;28;20368;-68
2021/08/20 03:06:16;;;;;;;6.65;3.30;;;18.40;99.90;;;;;;4993273;28;20034;-68
2021/08/20 03:08:41;;;;;;;6.72;3.20;;;18.40;99.90;;;;;;4991541;28;20038;-67
2021/08/20 03:11:08;;;;;;;5.97;2.90;;;18.40;99.90;;;;;;4993043;28;20498;-67
2021/08/20 03:13:33;;;;;;;5.30;3.45;;;18.40;99.90;;;;;;4993102;28;20034;-67
2021/08/20 03:15:59;;;;;;;5.22;3.03;;;18.30;99.90;;;;;;4991795;28;20026;-67
2021/08/20 03:18:25;;;;;;;5.55;3.55;;;18.30;99.90;;;;;;4992680;28;20068;-67
2021/08/20 03:20:51;;;;;;;7.78;4.07;;;18.40;99.90;;;;;;4991295;28;20360;-67
2021/08/20 03:23:17;;;;;;;4.25;3.05;;;18.50;99.90;;;;;;4992734;28;20121;-67
2021/08/20 03:25:43;;;;;;;5.60;3.58;;;18.50;99.90;;;;;;4975198;28;20121;-67
2021/08/20 03:28:10;;;;;;;6.88;4.10;;;18.60;99.90;;;;;;4991374;28;20038;-67
2021/08/20 03:30:36;;;;;;;6.80;3.90;;;18.50;99.90;;;;;;4991552;28;20030;-67
2021/08/20 03:33:03;;;;;;;8.23;3.95;;;18.40;99.90;;;;;;5007845;28;20410;-68
2021/08/20 03:35:29;;;;;;;6.50;4.03;;;18.40;99.90;;;;;;4991301;28;20382;-67
2021/08/20 03:37:58;;;;;;;7.93;4.05;;;18.40;99.90;;;;;;4942898;28;20155;-67
2021/08/20 03:40:25;;;;;;;6.43;4.00;;;18.50;99.90;;;;;;4992289;28;20034;-67
2021/08/20 03:42:55;;;;;;;6.60;3.78;;;18.40;99.90;;;;;;5000139;28;20034;-67
2021/08/20 03:45:22;;;;;;;8.20;3.85;;;18.50;99.90;;;;;;5011040;28;20030;-67
2021/08/20 03:47:48;;;;;;;6.72;3.75;;;18.50;99.90;;;;;;5010864;28;20426;-68
2021/08/20 03:50:15;;;;;;;7.47;4.13;;;18.40;99.90;;;;;;5011976;28;20038;-68
2021/08/20 03:52:41;;;;;;;8.10;3.70;;;18.40;99.90;;;;;;5007826;28;20034;-67
2021/08/20 03:55:08;;;;;;;9.82;4.38;;;18.40;99.90;;;;;;5011928;28;20498;-67
2021/08/20 03:57:34;;;;;;;6.80;4.22;;;18.40;99.90;;;;;;5011873;28;20036;-66
2021/08/20 04:00:00;;;;;;;9.20;4.60;;;18.50;99.90;;;;;;5012255;28;20040;-66
2021/08/20 04:02:26;;;;;;;8.57;4.45;;;18.50;99.90;;;;;;5011986;28;20490;-67
2021/08/20 04:04:51;;;;;;;6.82;3.70;;;18.60;99.90;;;;;;5011918;28;20407;-68
2021/08/20 04:07:19;;;;;;;8.32;4.32;;;18.60;99.90;;;;;;5012161;28;20041;-67
2021/08/20 04:09:47;;;;;;;7.47;3.97;;;18.70;99.90;;;;;;5012145;28;20105;-66
2021/08/20 04:12:16;;;;;;;8.40;5.50;;;18.80;99.90;;;;;;5010322;28;20385;-66
2021/08/20 04:14:42;;;;;;;7.88;4.15;;;19.00;99.90;;;;;;5007586;28;20034;-66
2021/08/20 04:17:08;;;;;;;6.38;4.10;;;18.90;99.90;;;;;;5007199;28;20050;-66
2021/08/20 04:19:34;;;;;;;7.10;4.25;;;18.80;99.90;;;;;;4992395;28;20045;-67
2021/08/20 04:22:02;;;;;;;6.45;4.20;;;18.70;99.90;;;;;;5007515;28;20475;-68
2021/08/20 04:24:28;;;;;;;10.27;4.68;;;18.60;99.90;;;;;;5007397;28;20057;-67
2021/08/20 04:26:54;;;;;;;10.13;4.65;;;18.50;99.90;;;;;;4991928;28;20487;-68
2021/08/20 04:29:19;;;;;;;6.50;3.78;;;18.60;99.90;;;;;;4992664;28;20085;-67
2021/08/20 04:31:45;;;;;;;8.05;4.43;;;18.60;99.90;;;;;;4992113;28;20602;-68
2021/08/20 04:34:11;;;;;;;6.50;4.28;;;18.60;99.90;;;;;;4998194;28;20041;-67
2021/08/20 04:36:37;;;;;;;6.78;4.18;;;18.60;99.90;;;;;;5011853;28;20038;-67
2021/08/20 04:39:03;;;;;;;8.73;4.63;;;18.40;99.90;;;;;;5015628;28;20026;-67
2021/08/20 04:41:30;;;;;;;8.43;4.78;;;18.40;99.90;;;;;;5014047;28;20041;-67
2021/08/20 04:43:57;;;;;;;8.05;5.32;;;18.60;99.90;;;;;;5015238;28;20061;-67
2021/08/20 04:46:24;;;;;;;8.77;5.00;;;18.70;99.90;;;;;;5014117;28;20084;-67
2021/08/20 04:48:50;;;;;;;7.03;3.88;;;18.60;99.90;;;;;;5014062;28;20076;-67
2021/08/20 04:51:16;;;;;;;6.45;3.97;;;18.60;99.90;;;;;;5015148;28;20083;-67
2021/08/20 04:53:42;;;;;;;7.20;4.13;;;18.60;99.90;;;;;;5015144;28;20444;-67
2021/08/20 04:56:07;;;;;;;7.13;4.28;;;18.20;99.90;;;;;;5014969;28;20053;-67
2021/08/20 04:58:35;;;;;;;9.85;4.50;;;18.00;99.90;;;;;;5012892;28;20101;-65
2021/08/20 05:01:01;;;;;;;6.38;4.50;;;17.90;99.90;;;;;;5011862;28;20392;-69
2021/08/20 05:03:27;;;;;;;9.30;4.53;;;17.90;99.90;;;;;;5013678;28;20386;-66
2021/08/20 05:05:53;;;;;;;10.32;4.60;;;17.90;99.90;;;;;;4996745;28;20042;-67
2021/08/20 05:08:20;;;;;;;7.53;4.20;;;17.90;99.90;;;;;;5013275;28;20073;-66
2021/08/20 05:10:45;;;;;;;8.57;4.50;;;18.00;99.90;;;;;;5013144;28;20026;-66
2021/08/20 05:13:11;;;;;;;9.77;4.03;;;18.10;99.90;;;;;;5014555;28;20038;-67
2021/08/20 05:15:37;;;;;;;7.15;4.32;;;18.10;99.90;;;;;;5013265;28;20057;-66
2021/08/20 05:18:03;;;;;;;8.60;4.22;;;18.20;99.90;;;;;;5014487;28;20077;-66
2021/08/20 05:20:29;;;;;;;7.20;4.55;;;18.20;99.90;;;;;;5014385;28;20476;-66
2021/08/20 05:22:57;;;;;;;6.28;4.13;;;18.30;99.90;;;;;;5012120;28;20042;-65
2021/08/20 05:25:26;;;;;;;6.35;3.72;;;18.30;99.90;;;;;;5013684;28;20029;-66
2021/08/20 05:27:52;;;;;;;6.82;4.20;;;18.30;99.90;;;;;;5012905;28;20062;-66
2021/08/20 05:30:19;;;;;;;8.43;4.45;;;18.30;99.90;;;;;;5014024;28;20088;-66
2021/08/20 05:32:45;;;;;;;12.27;4.80;;;18.40;99.90;;;;;;5012499;28;20042;-66
2021/08/20 05:35:13;;;;;;;9.32;4.28;;;18.40;99.90;;;;;;5013053;28;20491;-66
2021/08/20 05:37:39;;;;;;;8.57;4.75;;;18.40;99.90;;;;;;5014137;28;20056;-68
2021/08/20 05:40:06;;;;;;;8.93;4.43;;;18.50;99.90;;;;;;5014389;28;20041;-68
2021/08/20 05:42:32;;;;;;;11.95;5.22;;;18.60;99.90;;;;;;5009690;28;20034;-67
2021/08/20 05:44:58;;;;;;;10.52;4.70;;;18.80;99.90;;;;;;4993692;28;20034;-68
2021/08/20 05:47:24;;;;;;;7.93;4.47;;;18.90;99.90;;;;;;5009455;28;20438;-67
2021/08/20 05:49:51;;;;;;;7.75;4.50;;;19.00;99.90;;;;;;4994316;28;20037;-68
2021/08/20 05:52:17;;;;;;;7.07;4.38;;;19.10;99.90;;;;;;4997286;28;20030;-67
2021/08/20 05:54:44;;;;;;;6.65;4.28;;;19.10;99.90;;;;;;4994506;28;20545;-68
2021/08/20 05:57:09;;;;;;;6.55;4.47;;;19.20;99.90;;;;;;5005672;28;20069;-68
2021/08/20 05:59:35;;;;;;;6.85;4.38;;;19.30;99.90;;;;;;5028541;28;20073;-68
2021/08/20 06:02:01;;;;;;;6.43;4.45;;;19.30;99.90;;;;;;5012535;28;20029;-68
2021/08/20 06:04:27;;;;;;;11.45;4.72;;;19.30;99.90;;;;;;5012912;28;20022;-68
2021/08/20 06:06:53;;;;;;;7.38;4.22;;;19.30;99.90;;;;;;5013323;28;20049;-68
2021/08/20 06:09:18;;;;;;;8.32;5.22;;;19.40;99.90;;;;;;5014026;28;20038;-68
2021/08/20 06:11:44;;;;;;;9.02;5.20;;;19.50;99.90;;;;;;5013400;28;20498;-68
2021/08/20 06:14:10;;;;;;;10.07;4.40;;;19.50;99.90;;;;;;5013318;28;20397;-69
2021/08/20 06:16:36;;;;;;;6.95;4.05;;;19.50;99.90;;;;;;5013482;28;20057;-66
2021/08/20 06:19:01;;;;;;;6.55;3.83;;;19.50;99.90;;;;;;5013602;28;20441;-66
2021/08/20 06:21:27;;;;;;;7.10;3.65;;;19.60;99.90;;;;;;5013340;28;20033;-67
2021/08/20 06:23:53;;;;;;;5.63;3.70;;;19.60;99.90;;;;;;5028856;28;20068;-67
2021/08/20 06:26:18;;;;;;;9.25;3.92;;;19.60;99.90;;;;;;5013295;28;20515;-67
2021/08/20 06:28:44;;;;;;;10.32;4.40;;;19.50;99.90;;;;;;5011942;28;20076;-66
2021/08/20 06:31:10;;;;;;;7.47;4.60;;;19.60;99.90;;;;;;5013052;28;20030;-67
2021/08/20 06:33:39;;;;;;;7.45;3.60;;;19.60;99.90;;;;;;5012853;28;20429;-65
2021/08/20 06:36:05;;;;;;;7.22;3.40;;;19.60;99.90;;;;;;5028069;28;20591;-66
2021/08/20 06:38:31;;;;;;;9.40;3.80;;;19.60;99.90;;;;;;5013181;28;20029;-67
2021/08/20 06:40:57;;;;;;;5.93;3.50;;;19.80;99.90;;;;;;5012111;28;20030;-67
2021/08/20 06:43:23;;;;;;;8.30;4.40;;;19.90;99.90;;;;;;5012686;28;20395;-67
2021/08/20 06:45:49;;;;;;;9.45;3.65;;;20.10;99.90;;;;;;5011586;28;20030;-66
2021/08/20 06:48:18;;;;;;;6.70;3.70;;;20.30;99.90;;;;;;5013187;28;20045;-66
2021/08/20 06:50:44;;;;;;;6.35;3.80;;;20.40;99.90;;;;;;5012852;28;20462;-66
2021/08/20 06:53:11;;;;;;;5.28;3.33;;;20.60;99.90;;;;;;5013140;28;20049;-63
2021/08/20 06:55:38;;;;;;;6.90;3.28;;;20.70;99.90;;;;;;5012925;28;20069;-64
2021/08/20 06:58:03;;;;;;;9.13;3.95;;;20.80;99.90;;;;;;5011345;28;20061;-65
2021/08/20 07:00:29;;;;;;;10.80;5.00;;;20.90;99.90;;;;;;5011556;28;20122;-65
2021/08/20 07:02:55;;;;;;;6.25;4.13;;;20.90;99.90;;;;;;5012077;28;20092;-64
2021/08/20 07:05:21;;;;;;;6.80;4.60;;;21.10;99.90;;;;;;5012915;28;20529;-65
2021/08/20 07:07:47;;;;;;;6.10;4.05;;;21.20;99.90;;;;;;5027619;28;20058;-65
2021/08/20 07:10:16;;;;;;;6.45;3.58;;;21.20;99.90;;;;;;5027967;28;20026;-65
2021/08/20 07:12:43;;;;;;;5.68;4.18;;;21.30;99.90;;;;;;5012271;28;20092;-65
2021/08/20 07:15:12;;;;;;;7.47;3.90;;;21.30;99.90;;;;;;5012862;28;20042;-64
2021/08/20 07:17:39;;;;;;;7.18;4.15;;;21.30;99.90;;;;;;5011193;28;20048;-65
2021/08/20 07:20:07;;;;;;;10.13;6.10;;;21.20;99.90;;;;;;5012550;28;20026;-65
2021/08/20 07:22:33;;;;;;;10.48;5.97;;;21.20;99.90;;;;;;5012708;28;20057;-65
2021/08/20 07:24:59;;;;;;;5.78;3.70;;;21.00;99.90;;;;;;5012638;28;20503;-65
2021/08/20 07:27:25;;;;;;;7.82;3.70;;;21.00;99.90;;;;;;5012284;28;20470;-65
2021/08/20 07:29:50;;;;;;;6.20;3.60;;;21.10;99.90;;;;;;5012261;28;20084;-64
2021/08/20 07:32:17;;;;;;;13.25;3.67;;;20.80;99.90;;;;;;5012525;28;20092;-64
2021/08/20 07:34:43;;;;;;;5.35;3.08;;;21.00;99.90;;;;;;5012630;28;20030;-65
2021/08/20 07:37:09;;;;;;;5.40;3.22;;;21.20;99.90;;;;;;5012657;28;20355;-64
2021/08/20 07:39:36;;;;;;;5.80;3.40;;;21.30;99.90;;;;;;5027687;28;20027;-64
2021/08/20 07:42:04;;;;;;;6.13;3.63;;;21.20;99.90;;;;;;5012476;28;20042;-65
2021/08/20 07:44:30;;;;;;;5.53;3.67;;;21.10;99.90;;;;;;5024355;28;20092;-67
2021/08/20 07:46:56;;;;;;;6.82;4.03;;;21.10;99.90;;;;;;5012208;28;20088;-63
2021/08/20 07:49:23;;;;;;;5.65;2.63;;;21.20;99.90;;;;;;5011420;28;20479;-63
2021/08/20 07:51:49;;;;;;;6.00;3.20;;;21.20;99.90;;;;;;5012429;28;20030;-63
2021/08/20 07:54:15;;;;;;;7.32;3.58;;;21.20;99.90;;;;;;5012345;28;20508;-63
2021/08/20 07:56:41;;;;;;;5.43;2.90;;;21.00;99.90;;;;;;5012045;28;20038;-63
2021/08/20 07:59:07;;;;;;;9.57;4.00;;;21.20;99.90;;;;;;5012073;28;20041;-63
2021/08/20 08:01:32;;;;;;;5.32;3.35;;;21.00;99.90;;;;;;5011189;28;20547;-63
2021/08/20 08:03:58;;;;;;;6.15;3.22;;;21.20;99.90;;;;;;5012111;28;20092;-63
2021/08/20 08:06:25;;;;;;;8.55;3.67;;;21.20;99.90;;;;;;5010661;28;20060;-63
2021/08/20 08:08:52;;;;;;;6.85;3.90;;;21.20;99.90;;;;;;5014439;28;20034;-63
2021/08/20 08:11:19;;;;;;;6.57;3.45;;;21.20;99.90;;;;;;5016211;28;20034;-63
2021/08/20 08:13:45;;;;;;;6.63;3.65;;;21.40;99.90;;;;;;5015794;28;20030;-63
2021/08/20 08:16:11;;;;;;;6.32;3.45;;;21.70;99.90;;;;;;5014810;28;20025;-64
2021/08/20 08:18:36;;;;;;;6.32;3.85;;;21.70;99.90;;;;;;5015631;28;20050;-63
2021/08/20 08:21:03;;;;;;;6.18;3.40;;;21.70;99.90;;;;;;5015532;28;20483;-63
2021/08/20 08:23:28;;;;;;;8.88;3.97;;;21.70;99.90;;;;;;5015668;28;20052;-63
2021/08/20 08:25:54;;;;;;;6.82;3.95;;;21.70;99.90;;;;;;4998213;28;20034;-63
2021/08/20 08:28:22;;;;;;;6.03;3.25;;;21.60;99.90;;;;;;5015696;28;20038;-63
2021/08/20 08:30:49;;;;;;;7.65;4.40;;;21.40;99.90;;;;;;5014314;28;20042;-64
2021/08/20 08:33:17;;;;;;;8.90;4.10;;;21.30;99.90;;;;;;5005905;28;20041;-63
2021/08/20 08:35:43;;;;;;;9.15;4.20;;;21.30;99.90;;;;;;5007711;28;20026;-62
2021/08/20 08:38:14;;;;;;;5.45;3.53;;;21.50;99.90;;;;;;5015530;28;20561;-62
2021/08/20 08:40:43;;;;;;;;;;;21.20;99.90;;;;;;5015687;28;20058;-62
2021/08/20 08:43:10;;;;;;;11.07;5.43;;;21.40;99.90;;;;;;5015266;28;20055;-63
2021/08/20 08:45:37;;;;;;;8.25;4.50;;;21.80;99.90;;;;;;5015193;28;20042;-62
2021/08/20 08:48:06;;;;;;;4.85;3.17;;;21.90;99.90;;;;;;5014725;28;20088;-62
2021/08/20 08:50:33;;;;;;;6.88;4.22;;;22.20;99.90;;;;;;5015449;28;20045;-63
2021/08/20 08:53:01;;;;;;;7.53;3.53;;;22.20;99.90;;;;;;5015104;28;20076;-63
2021/08/20 08:55:27;;;;;;;7.00;4.25;;;22.20;99.90;;;;;;5015550;28;20026;-63
2021/08/20 08:57:52;;;;;;;7.93;4.53;;;22.40;99.90;;;;;;5014724;28;20040;-63
2021/08/20 09:00:48;;;;;;;7.03;3.53;;;22.40;99.90;;;;;;5013982;28;20026;-62
2021/08/20 09:03:26;;;;;;;10.10;3.90;;;22.50;99.90;;;;;;5025868;28;20104;-63
2021/08/20 09:05:52;;;;;;;5.60;3.40;;;21.90;99.90;;;;;;5013760;28;20030;-63
2021/08/20 09:08:21;;;;;;;6.60;3.80;;;22.10;99.90;;;;;;5015042;28;20037;-62
2021/08/20 09:10:57;;;;;;;6.40;4.20;;;21.80;99.90;;;;;;5014477;28;20057;-63
2021/08/20 09:13:24;;;;;;;9.55;4.28;;;22.00;99.90;;;;;;5014929;28;20099;-63
2021/08/20 09:16:10;;;;;;;8.57;4.18;;;22.20;99.90;;;;;;5014798;28;20222;-63
2021/08/20 09:18:36;;;;;;;8.60;3.85;;;22.10;99.90;;;;;;5014193;28;20498;-63
2021/08/20 09:21:04;;;;;;;9.55;3.97;;;22.00;99.90;;;;;;5012640;28;20092;-63
2021/08/20 09:23:30;;;;;;;6.75;3.95;;;21.90;99.90;;;;;;5014825;28;20064;-63
2021/08/20 09:25:57;;;;;;;7.18;4.13;;;21.70;99.90;;;;;;5014509;28;20471;-63
2021/08/20 09:28:33;;;;;;;6.60;4.05;;;22.00;99.90;;;;;;5014346;28;20030;-63
2021/08/20 09:31:12;;;;;;;6.97;3.60;;;22.20;99.90;;;;;;5014559;28;20036;-63
2021/08/20 09:33:43;;;;;;;7.70;4.28;;;22.30;99.90;;;;;;5014565;28;20038;-63
2021/08/20 09:36:20;;;;;;;4.93;3.10;;;22.30;99.90;;;;;;5014241;28;20042;-63
2021/08/20 09:38:57;;;;;;;4.65;2.70;;;22.00;99.90;;;;;;5014266;28;20037;-63
2021/08/20 09:41:32;;;;;;;5.82;3.35;;;22.30;99.90;;;;;;5011002;28;20036;-63
2021/08/20 09:44:03;;;;;;;6.55;3.42;;;22.50;99.90;;;;;;5012657;28;20041;-63
2021/08/20 09:46:44;;;;;;;8.40;3.65;;;22.60;99.90;;;;;;5014283;28;20029;-63
2021/08/20 09:49:10;;;;;;;6.15;3.50;;;22.60;99.90;;;;;;5012654;28;20038;-63
2021/08/20 09:51:47;;;;;;;7.38;3.90;;;22.80;99.90;;;;;;5014280;28;20034;-63
2021/08/20 09:54:26;;;;;;;6.13;3.22;;;22.80;99.90;;;;;;5014146;28;20029;-63
2021/08/20 09:56:53;;;;;;;6.97;3.92;;;22.90;99.90;;;;;;5013894;28;20033;-63
2021/08/20 09:59:19;;;;;;;8.00;3.17;;;22.60;99.90;;;;;;5013995;28;20037;-63
2021/08/20 10:01:47;;;;;;;7.85;3.53;;;22.90;99.90;;;;;;5014141;28;20034;-63
2021/08/20 10:04:17;;;;;;;6.53;3.15;;;23.00;99.90;;;;;;5028571;28;20531;-62
2021/08/20 10:06:46;;;;;;;6.33;2.90;;;23.20;99.90;;;;;;5013711;28;20634;-62
2021/08/20 10:09:19;;;;;;;6.28;3.22;;;23.30;99.90;;;;;;5012251;28;20034;-62
2021/08/20 10:11:54;;;;;;;5.28;3.00;;;23.30;99.90;;;;;;5014078;28;20037;-62
2021/08/20 10:14:23;;;;;;;6.35;3.05;;;23.30;99.90;;;;;;5013629;28;20038;-62
2021/08/20 10:16:49;;;;;;;6.97;2.70;;;23.40;99.90;;;;;;5028633;28;20528;-62
2021/08/20 10:19:15;;;;;;;5.55;3.03;;;23.70;99.60;;;;;;5013792;28;20069;-63
2021/08/20 10:21:43;;;;;;;4.93;2.78;;;23.40;99.90;;;;;;5013796;28;20036;-63
2021/08/20 10:24:12;;;;;;;5.88;2.25;;;23.40;99.90;;;;;;5013227;28;20045;-62
2021/08/20 10:26:54;;;;;;;4.20;2.47;;;23.50;99.70;;;;;;5012154;28;20033;-63
2021/08/20 10:29:24;;;;;;;6.05;2.10;;;23.80;99.40;;;;;;5013492;28;20144;-62
2021/08/20 10:31:51;;;;;;;7.40;2.80;;;23.90;99.30;;;;;;5028325;28;20033;-63
2021/08/20 10:34:39;;;;;;;9.25;2.40;;;23.80;99.90;;;;;;5013110;28;20049;-63
2021/08/20 10:37:27;;;;;;;5.43;2.63;;;23.90;99.80;;;;;;5026997;28;20041;-64
2021/08/20 10:39:56;;;;;;;5.82;2.40;;;24.20;98.80;;;;;;5028080;28;20034;-64
2021/08/20 10:42:41;;;;;;;4.22;2.38;;;24.40;97.90;;;;;;5028382;28;20113;-64
2021/08/20 10:45:12;;;;;;;5.20;2.67;;;24.50;98.10;;;;;;5012672;28;20041;-65
2021/08/20 10:47:42;;;;;;;6.13;2.60;;;24.40;97.80;;;;;;5012116;28;20037;-63
2021/08/20 10:50:20;;;;;;;4.27;2.47;;;23.90;98.00;;;;;;5012899;28;20022;-63
2021/08/20 10:52:49;;;;;;;5.07;2.47;;;24.10;98.00;;;;;;5027874;28;20277;-64
2021/08/20 10:55:29;;;;;;;3.67;2.30;;;24.50;97.60;;;;;;5012801;28;20406;-64
2021/08/20 10:58:01;;;;;;;5.68;2.45;;;24.80;98.50;;;;;;5013133;28;20387;-64
2021/08/20 11:00:36;;;;;;;3.88;2.20;;;25.00;97.30;;;;;;5027862;28;20030;-63
2021/08/20 11:03:08;;;;;;;4.88;2.28;;;25.10;96.40;;;;;;5027556;28;20029;-63
2021/08/20 11:05:39;;;;;;;4.03;2.40;;;24.70;98.00;;;;;;5012997;28;20038;-65
2021/08/20 11:08:44;;;;;;;8.88;2.53;;;24.60;96.70;;;;;;5012363;28;20386;-65
2021/08/20 11:11:43;;;;;;;4.85;2.35;;;24.90;97.20;;;;;;5010184;28;20165;-66
2021/08/20 11:14:31;;;;;;;6.65;2.40;;;25.40;97.60;;;;;;5010095;28;20057;-65
2021/08/20 11:16:56;;;;;;;4.70;2.50;;;25.40;97.10;;;;;;5009807;28;20038;-66
2021/08/20 11:19:45;;;;;;;7.47;2.40;;;25.20;96.20;;;;;;5010290;28;20038;-67
2021/08/20 11:22:20;;;;;;;5.40;2.30;;;25.80;96.20;;;;;;5009740;28;20046;-66
2021/08/20 11:25:13;;;;;;;5.32;2.25;;;26.40;96.40;;;;;;5010250;28;20413;-65
2021/08/20 11:27:42;;;;;;;4.10;2.25;;;26.50;96.20;;;;;;5009875;28;20037;-66
2021/08/20 11:30:08;;;;;;;3.60;2.13;;;26.10;94.80;;;;;;5009684;28;20042;-65
2021/08/20 11:32:34;;;;;;;4.32;1.92;;;25.70;95.40;;;;;;5009801;28;20390;-65
2021/08/20 11:35:00;;;;;;;5.18;2.53;;;25.90;95.30;;;;;;5009495;28;20380;-66
2021/08/20 11:37:25;;;;;;;4.00;2.22;;;26.00;95.40;;;;;;5009763;28;20041;-66
2021/08/20 11:40:10;;;;;;;4.38;2.30;;;26.10;95.00;;;;;;5009776;28;20041;-65
2021/08/20 11:42:36;;;;;;;3.78;2.22;;;26.00;95.70;;;;;;5004799;28;20050;-66
2021/08/20 11:45:22;;;;;;;6.35;2.53;;;26.10;94.10;;;;;;5010607;28;20125;-66
2021/08/20 11:47:48;;;;;;;6.05;1.98;;;26.20;94.20;;;;;;5009780;28;20514;-67
2021/08/20 11:50:14;;;;;;;3.53;2.00;;;26.00;93.90;;;;;;5011901;28;20120;-67
2021/08/20 11:52:49;;;;;;;4.43;1.98;;;26.50;93.50;;;;;;5012150;28;20042;-65
2021/08/20 11:55:17;;;;;;;3.33;1.73;;;26.90;94.30;;;;;;5012168;28;20521;-66
2021/08/20 11:57:43;;;;;;;4.07;2.00;;;27.40;93.10;;;;;;5027489;28;20029;-65
2021/08/20 12:00:12;;;;;;;3.85;1.92;;;27.50;93.20;;;;;;5012070;28;20068;-65
2021/08/20 12:02:37;;;;;;;4.85;2.25;;;27.10;93.30;;;;;;5011121;28;20407;-66
2021/08/20 12:05:21;;;;;;;3.85;2.15;;;26.80;93.50;;;;;;5010452;28;20026;-66
2021/08/20 12:07:48;;;;;;;3.60;1.90;;;26.30;93.80;;;;;;5012207;28;20490;-66
2021/08/20 12:10:16;;;;;;;5.00;2.03;;;26.40;94.00;;;;;;5012036;28;20491;-66
2021/08/20 12:12:45;;;;;;;3.35;2.25;;;25.50;94.80;;;;;;5010987;28;20029;-67
2021/08/20 12:15:13;;;;;;;2.78;1.48;;;25.30;95.30;;;;;;5011879;28;20037;-66
2021/08/20 12:17:39;;;;;;;3.63;2.22;;;25.70;94.20;;;;;;5026932;28;20112;-67
2021/08/20 12:20:23;;;;;;;3.75;2.00;;;25.50;95.10;;;;;;5010611;28;20108;-67
2021/08/20 12:22:50;;;;;;;4.57;2.60;;;26.30;94.70;;;;;;5010931;28;20471;-66
2021/08/20 12:25:17;;;;;;;3.53;2.45;;;26.30;94.00;;;;;;5011976;28;20030;-66
2021/08/20 12:27:45;;;;;;;3.95;1.92;;;26.40;93.70;;;;;;5011795;28;20034;-67
2021/08/20 12:30:15;;;;;;;5.18;1.83;;;25.80;93.50;;;;;;5002960;28;20057;-66
2021/08/20 12:32:52;;;;;;;3.25;1.85;;;25.80;93.20;;;;;;5001405;28;20439;-66
2021/08/20 12:35:20;;;;;;;2.88;1.80;;;26.20;92.90;;;;;;4999343;28;20475;-66
2021/08/20 12:38:10;;;;;;;3.90;1.85;;;25.60;93.50;;;;;;4992425;28;20054;-66
2021/08/20 12:41:03;;;;;;;4.88;3.00;;;25.70;94.00;;;;;;5010881;28;20044;-67
2021/08/20 12:43:32;;;;;;;2.88;1.83;;;25.80;93.50;;;;;;5024493;28;20117;-66
2021/08/20 12:46:10;;;;;;;6.25;2.00;;;26.00;93.80;;;;;;5001379;28;20045;-66
2021/08/20 12:48:38;;;;;;;3.58;2.10;;;26.20;93.50;;;;;;5008603;28;20042;-66
2021/08/20 12:51:07;;;;;;;5.57;2.08;;;25.80;94.50;;;;;;5008479;28;20034;-66